Řízení letového provozu České republiky  
Aktualizace dat:  26.09.2022 16:33:32 UTC English version
   METEO Zobrazení stránky:  26.09.2022 16:34:24 UTC  
vysvětlivky
METAR EDAC 261620Z AUTO 18004KT 140V210 9999 // SCT063/// 13/08 Q1002=
METAR EDDB 261620Z AUTO 19008KT CAVOK 15/07 Q1001 NOSIG=
METAR EDDC 261620Z AUTO 23004KT CAVOK 14/05 Q1002 NOSIG=
METAR EDDE 261620Z AUTO 23010KT CAVOK 13/05 Q1001 NOSIG=
METAR EDDF 261620Z AUTO 18012KT CAVOK 14/08 Q1001 NOSIG=
METAR EDDM 261620Z AUTO 24005KT 9999 SCT040 13/08 Q1005 NOSIG=
METAR EDDN 261620Z AUTO 24007KT CAVOK 14/06 Q1004 NOSIG=
METAR EDDP 261620Z AUTO 18010KT CAVOK 14/07 Q1001 NOSIG=
METAR EDQM 261620Z 21009KT 9999 FEW036 SCT046 11/06 Q1003=
METAR EPBY 261630Z 28003KT 9999 FEW033CB BKN046 13/08 Q1003=
METAR EPGD 261630Z VRB02KT 9999 FEW044 13/06 Q1003=
METAR EPKK 261630Z 18002KT 9999 FEW036 14/11 Q1005=
METAR EPKT 261630Z 10002KT 9999 FEW040 11/10 Q1005=
METAR EPLB 261630Z 16004KT 9999 -SHRA SCT020TCU BKN040 14/13 Q1006=
METAR EPLL 261630Z VRB02KT CAVOK 12/11 Q1004=
METAR EPMO 261630Z 13005KT 100V200 9999 SCT040CB 14/10 Q1004=
METAR EPPO 261630Z 19005KT CAVOK 13/08 Q1004=
METAR EPRZ 261630Z 09003KT 5000 BR SCT004 OVC023 12/12 Q1006=
METAR EPWA 261630Z 15003KT 9999 SCT041CB 14/12 Q1004 TEMPO 4000 SHRA=
METAR EPWR 261630Z 13003KT 9999 FEW020 12/09 Q1005=
METAR LHBP 261630Z 03003KT 340V050 9999 FEW030 BKN230 17/12 Q1006 NOSIG=
METAR LHSM 261615Z AUTO 15003KT CAVOK 16/13 Q1006=
METAR LKBC NIL
METAR LKCS 261630Z AUTO 21007KT 9999 OVC090/// 14/08 Q1005=
METAR LKCV 261630Z 10003KT CAVOK 15/10 Q1004 NOSIG RMK BLU BLU=
METAR LKKB 261630Z 20005KT CAVOK 14/07 Q1004 NOSIG RMK BLU BLU=
METAR LKKU 261600Z VRB02KT 9999 FEW039 16/11 Q1005=
METAR LKKV 261630Z 20003KT 130V250 9999 FEW041 11/04 Q1004=
METAR LKLN 261630Z AUTO 22004KT CAVOK 13/07 Q1004=
METAR LKMT 261630Z 21007KT CAVOK 14/10 Q1005 NOSIG=
METAR LKNA 261630Z VRB02KT 9999 FEW042 14/09 Q1005 NOSIG RMK BLU BLU=
METAR LKPD 261630Z VRB01KT 9999 FEW030 15/10 Q1004 NOSIG RMK BLU BLU=
METAR LKPJ 261630Z AUTO VRB02KT CAVOK 14/10 Q1005=
METAR LKPR 261630Z 22006KT 180V270 CAVOK 14/08 Q1004 NOSIG=
METAR LKTB 261630Z 34003KT 300V010 9999 FEW048 16/09 Q1005 NOSIG=
METAR LKVO NIL
METAR LOWG 261620Z VRB01KT 9999 FEW010 SCT025 FEW040CB 14/12 Q1006 TEMPO SHRA=
METAR LOWI 261620Z 09009KT 060V120 9999 FEW035 SCT055 BKN100 13/08 Q1005 NOSIG=
METAR LOWK 261620Z AUTO 27003KT 240V300 9999 FEW009 13/12 Q1006 NOSIG=
METAR LOWL 261620Z AUTO 33003KT 300V360 9999 FEW046 SCT080 15/08 Q1006 NOSIG=
METAR LOWS 261620Z 02003KT 9999 FEW025 SCT045 BKN060 13/08 Q1006 TEMPO -SHRA=
METAR LOWW 261620Z 35003KT CAVOK 16/08 Q1005 NOSIG=
METAR LOXZ 261620Z 08004KT 9999 FEW025 SCT045 13/09 Q1006 NOSIG=
METAR LZIB 261630Z 29003KT 9999 FEW038 17/09 Q1005 NOSIG=
METAR LZKZ 261630Z 24003KT 200V260 9999 FEW008 SCT015 12/12 Q1006 NOSIG=
METAR LZPP 261630Z VRB01KT 9999 FEW040 16/11 Q1005=
METAR LZTT 261630Z 25005KT 230V300 9999 FEW008 SCT023 12/09 Q1006 NOSIG=
METAR LZZI 261630Z VRB02KT 9999 FEW032 13/11 Q1005=